Gusto — V7DX6 — position and weather

sailwx.info

Track history (hours):
 
Tides and Currents Weather Stations Pressure Air Temp Water Temp Dewpoint Dewpoint Depression Visibility Wind Speed Wind Dir Waves Ship Positions

Gusto

Last reported at 2017-Sep-20 04:17 UTC. Time now 2017-Sep-22 04:29 UTC.
Position N 27°01' W 079°57'.

Length 26 m.

Type: Pleasure craft. MMSI: 538070983.

Date/timePositionNaut miles runAvg speedWind from/ knotsBaromVisibWave heightAir tempDewpointWater temp
2017-Sep-20 04:17N 27°01' W 079°57'3 9.9
2017-Sep-20 04:00N 26°58' W 079°57'510.0
2017-Sep-20 03:30N 26°53' W 079°57'29 9.1
2017-Sep-20 00:18N 26°24' W 079°58'310.6
2017-Sep-20 00:00N 26°21' W 079°58'510.2
2017-Sep-19 23:30N 26°16' W 080°00'5 9.5
2017-Sep-19 23:00N 26°11' W 080°01'4 8.3
2017-Sep-19 22:30N 26°08' W 080°02'4 7.9
2017-Sep-19 22:00N 26°06' W 080°06'2 4.6
2017-Sep-19 21:30N 26°04' W 080°07'1 1.0
2017-Sep-19 20:54N 26°04' W 080°08'0 0.0
2017-Sep-19 20:21N 26°04' W 080°08'0 0.0
2017-Sep-19 19:54N 26°04' W 080°08'0 0.0
2017-Sep-19 19:27N 26°04' W 080°08'0 0.0
2017-Sep-19 18:57N 26°04' W 080°08'0 0.0
2017-Sep-19 18:27N 26°04' W 080°08'0 0.0
2017-Sep-19 17:57N 26°04' W 080°08'0 0.0
2017-Sep-19 17:27N 26°04' W 080°08'0 0.0
2017-Sep-19 16:54N 26°04' W 080°08'0 0.0
2017-Sep-19 16:30N 26°04' W 080°08'0 0.0
2017-Sep-19 16:00N 26°04' W 080°08'0 0.0
2017-Sep-19 15:30N 26°04' W 080°08'0 0.0
2017-Sep-19 15:00N 26°04' W 080°08'0 0.0
2017-Sep-19 14:27N 26°04' W 080°08'0 0.0
2017-Sep-19 13:57N 26°04' W 080°08'0 0.0
2017-Sep-19 13:30N 26°04' W 080°08'0 0.0
2017-Sep-19 13:00N 26°04' W 080°08'0 0.0
2017-Sep-19 12:30N 26°04' W 080°08'0 0.0
2017-Sep-19 12:00N 26°04' W 080°08'0 0.1
2017-Sep-19 11:30N 26°04' W 080°08'0 0.0
2017-Sep-19 11:00N 26°04' W 080°08'0 0.0
2017-Sep-19 10:17N 26°04' W 080°08'0 0.0
2017-Sep-19 09:59N 26°04' W 080°08'0 0.0
2017-Sep-19 09:29N 26°04' W 080°08'0 0.0
2017-Sep-19 08:59N 26°04' W 080°08'0 0.0
2017-Sep-19 08:14N 26°04' W 080°08'0 0.0
2017-Sep-19 07:59N 26°04' W 080°08'0 0.0
2017-Sep-19 07:20N 26°04' W 080°08'0 0.0
2017-Sep-19 06:59N 26°04' W 080°08'0 0.0
2017-Sep-19 06:20N 26°04' W 080°08'0 0.0
2017-Sep-19 05:53N 26°04' W 080°08'0 0.0
2017-Sep-19 05:23N 26°04' W 080°08'0 0.0
2017-Sep-19 04:50N 26°04' W 080°08'0 0.0
2017-Sep-19 04:20N 26°04' W 080°08'0 0.0
2017-Sep-19 03:53N 26°04' W 080°08'0 0.0
2017-Sep-19 03:23N 26°04' W 080°08'0 0.0
2017-Sep-19 02:56N 26°04' W 080°08'0 0.0
2017-Sep-19 02:26N 26°04' W 080°08'0 0.0
2017-Sep-19 01:56N 26°04' W 080°08'0 0.0
2017-Sep-19 01:26N 26°04' W 080°08'0 0.0
2017-Sep-19 00:59N 26°04' W 080°08'0 0.0
2017-Sep-19 00:11N 26°04' W 080°08'0 0.0
2017-Sep-18 23:59N 26°04' W 080°08'0 0.0
2017-Sep-18 15:20N 26°04' W 080°08'0 0.0
2017-Sep-18 14:50N 26°04' W 080°08'0 0.0
2017-Sep-18 14:02N 26°04' W 080°08'0 0.0
2017-Sep-18 13:53N 26°04' W 080°08'0 0.0
2017-Sep-18 13:23N 26°04' W 080°08'0 0.0
2017-Sep-18 12:53N 26°04' W 080°08'0 0.0
2017-Sep-18 12:26N 26°04' W 080°08'0 0.0
2017-Sep-18 11:26N 26°04' W 080°08'0 0.0
2017-Sep-18 10:56N 26°04' W 080°08'0 0.0
2017-Sep-18 09:53N 26°04' W 080°08'0 0.0
2017-Sep-18 09:26N 26°04' W 080°08'0 0.0
2017-Sep-18 08:59N 26°04' W 080°08'0 0.0
2017-Sep-18 08:11N 26°04' W 080°08'0 0.0
2017-Sep-18 07:59N 26°04' W 080°08'0 0.0
2017-Sep-18 07:29N 26°04' W 080°08'0 0.0
2017-Sep-18 06:59N 26°04' W 080°08'0 0.0
2017-Sep-18 06:29N 26°04' W 080°08'0 0.0
2017-Sep-18 05:59N 26°04' W 080°08'0 0.0
2017-Sep-18 05:28N 26°04' W 080°08'0 0.0
2017-Sep-18 04:59N 26°04' W 080°08'0 0.0
2017-Sep-17 13:10N 26°04' W 080°08'0 0.0
2017-Sep-17 12:59N 26°04' W 080°08'0 0.0
2017-Sep-17 12:29N 26°04' W 080°08'0 0.0
2017-Sep-17 11:59N 26°04' W 080°08'0 0.0
2017-Sep-17 11:28N 26°04' W 080°08'0 0.0
2017-Sep-17 10:58N 26°04' W 080°08'0 0.0
2017-Sep-17 10:28N 26°04' W 080°08'0 0.0
2017-Sep-17 09:58N 26°04' W 080°08'0 0.0
2017-Sep-17 09:29N 26°04' W 080°08'0 0.0
2017-Sep-17 08:58N 26°04' W 080°08'0 0.0
2017-Sep-17 08:29N 26°04' W 080°08'0 0.0
2017-Sep-17 07:58N 26°04' W 080°08'0 0.0
2017-Sep-17 07:28N 26°04' W 080°08'0 0.0
2017-Sep-17 06:58N 26°04' W 080°08'0 0.0
2017-Sep-17 06:28N 26°04' W 080°08'0 0.0
2017-Sep-17 05:58N 26°04' W 080°08'0 0.0
2017-Sep-17 05:28N 26°04' W 080°08'0 0.0
2017-Sep-17 04:58N 26°04' W 080°08'0 0.0
2017-Sep-17 04:28N 26°04' W 080°08'0 0.0
2017-Sep-17 03:59N 26°04' W 080°08'0 0.0
2017-Sep-17 03:28N 26°04' W 080°08'0 0.0
2017-Sep-17 02:59N 26°04' W 080°08'0 0.0
2017-Sep-17 02:28N 26°04' W 080°08'0 0.0
2017-Sep-17 01:58N 26°04' W 080°08'0 0.0
2017-Sep-17 01:28N 26°04' W 080°08'0 0.0
2017-Sep-17 00:58N 26°04' W 080°08'0 0.0
2017-Sep-17 00:28N 26°04' W 080°08'0 0.0
2017-Sep-16 23:59N 26°04' W 080°08'0 0.0
2017-Sep-16 23:28N 26°04' W 080°08'0 0.0
2017-Sep-16 22:58N 26°04' W 080°08'0 0.0
2017-Sep-16 22:28N 26°04' W 080°08'0 0.0
2017-Sep-16 21:58N 26°04' W 080°08'0 0.0
2017-Sep-16 21:28N 26°04' W 080°08'0 0.0
2017-Sep-16 20:58N 26°04' W 080°08'0 0.0
2017-Sep-16 20:28N 26°04' W 080°08'0 0.0
2017-Sep-16 19:58N 26°04' W 080°08'0 0.0
2017-Sep-16 19:28N 26°04' W 080°08'0 0.0
2017-Sep-16 18:59N 26°04' W 080°08'0 0.0
2017-Sep-16 18:28N 26°04' W 080°08'0 0.0
2017-Sep-16 17:58N 26°04' W 080°08'0 0.0
2017-Sep-16 17:28N 26°04' W 080°08'0 0.0
2017-Sep-16 16:58N 26°04' W 080°08'0 0.0
2017-Sep-16 16:28N 26°04' W 080°08'0 0.0
2017-Sep-16 15:58N 26°04' W 080°08'0 0.0
2017-Sep-16 15:28N 26°04' W 080°08'0 0.0
2017-Sep-16 14:58N 26°04' W 080°08'0 0.0
2017-Sep-16 14:28N 26°04' W 080°08'0 0.0
2017-Sep-16 13:58N 26°04' W 080°08'0 0.0
2017-Sep-16 13:28N 26°04' W 080°08'0 0.0
2017-Sep-16 12:58N 26°04' W 080°08'0 0.0
2017-Sep-16 12:28N 26°04' W 080°08'0 0.0
2017-Sep-16 11:58N 26°04' W 080°08'0 0.0
2017-Sep-16 11:28N 26°04' W 080°08'0 0.0
2017-Sep-16 10:58N 26°04' W 080°08'0 0.0
2017-Sep-16 10:28N 26°04' W 080°08'0 0.0
2017-Sep-16 09:58N 26°04' W 080°08'0 0.0
2017-Sep-16 09:28N 26°04' W 080°08'0 0.0
2017-Sep-16 08:58N 26°04' W 080°08'0 0.0
2017-Sep-16 08:28N 26°04' W 080°08'0 0.0
2017-Sep-16 07:58N 26°04' W 080°08'0 0.0
2017-Sep-16 07:28N 26°04' W 080°08'0 0.0
2017-Sep-16 06:58N 26°04' W 080°08'0 0.0
2017-Sep-16 06:28N 26°04' W 080°08'0 0.0
2017-Sep-16 05:58N 26°04' W 080°08'0 0.0
2017-Sep-16 05:28N 26°04' W 080°08'0 0.0
2017-Sep-16 04:58N 26°04' W 080°08'0 0.0
2017-Sep-16 04:28N 26°04' W 080°08'0 0.0
2017-Sep-16 03:52N 26°04' W 080°08'0 0.0
2017-Sep-16 03:28N 26°04' W 080°08'0 0.0
2017-Sep-16 02:58N 26°04' W 080°08'0 0.0
2017-Sep-16 02:28N 26°04' W 080°08'0 0.0
2017-Sep-16 01:58N 26°04' W 080°08'0 0.0
2017-Sep-16 01:28N 26°04' W 080°08'0 0.0
2017-Sep-16 00:58N 26°04' W 080°08'0 0.0
2017-Sep-16 00:28N 26°04' W 080°08'0 0.0
2017-Sep-15 23:58N 26°04' W 080°08'0 0.0
2017-Sep-15 23:28N 26°04' W 080°08'0 0.0
2017-Sep-15 22:58N 26°04' W 080°08'0 0.0
2017-Sep-15 22:28N 26°04' W 080°08'0 0.0
2017-Sep-15 21:58N 26°04' W 080°08'0 0.0
2017-Sep-15 21:28N 26°04' W 080°08'0 0.0
2017-Sep-15 20:58N 26°04' W 080°08'0 0.0
2017-Sep-15 20:28N 26°04' W 080°08'0 0.0
2017-Sep-15 19:58N 26°04' W 080°08'0 0.0
2017-Sep-15 19:28N 26°04' W 080°08'0 0.0
2017-Sep-15 18:58N 26°04' W 080°08'0 0.0
2017-Sep-15 18:28N 26°04' W 080°08'0 0.0
2017-Sep-15 17:58N 26°04' W 080°08'0 0.1
2017-Sep-15 17:28N 26°04' W 080°08'0 0.0
2017-Sep-15 16:58N 26°04' W 080°08'0 0.0
2017-Sep-15 16:28N 26°04' W 080°08'0 0.0
2017-Sep-15 15:58N 26°04' W 080°08'0 0.0
2017-Sep-15 15:28N 26°04' W 080°08'0 0.0
2017-Sep-15 14:58N 26°04' W 080°08'0 0.0
2017-Sep-15 14:19N 26°04' W 080°08'0 0.1
2017-Sep-15 13:52N 26°04' W 080°08'0 0.0
2017-Sep-15 13:19N 26°04' W 080°08'0 0.0
2017-Sep-15 12:46N 26°04' W 080°08'0 0.0
2017-Sep-15 12:22N 26°04' W 080°08'0 0.0
2017-Sep-15 11:52N 26°04' W 080°08'0 0.0
2017-Sep-15 11:22N 26°04' W 080°08'0 0.0
2017-Sep-15 10:55N 26°04' W 080°08'0 0.0
2017-Sep-15 10:22N 26°04' W 080°08'0 0.0
2017-Sep-15 09:55N 26°04' W 080°08'0 0.0
2017-Sep-15 09:25N 26°04' W 080°08'0 0.0
2017-Sep-15 08:55N 26°04' W 080°08'0 0.0
2017-Sep-15 08:25N 26°04' W 080°08'0 0.0
2017-Sep-15 07:55N 26°04' W 080°08'0 0.0
2017-Sep-15 07:25N 26°04' W 080°08'0 0.0
2017-Sep-15 06:58N 26°04' W 080°08'0 0.0
2017-Sep-15 06:28N 26°04' W 080°08'0 0.0
2017-Sep-15 05:58N 26°04' W 080°08'0 0.0
2017-Sep-15 05:28N 26°04' W 080°08'0 0.0
2017-Sep-15 04:58N 26°04' W 080°08'0 0.0
2017-Sep-15 04:28N 26°04' W 080°08'0 0.0
2017-Sep-15 03:58N 26°04' W 080°08'0 0.0
2017-Sep-15 03:28N 26°04' W 080°08'0 0.0
2017-Sep-15 02:58N 26°04' W 080°08'0 0.0
2017-Sep-15 02:28N 26°04' W 080°08'0 0.0
2017-Sep-15 01:58N 26°04' W 080°08'0 0.0
2017-Sep-15 01:28N 26°04' W 080°08'0 0.0
2017-Sep-15 00:58N 26°04' W 080°08'0 0.0
2017-Sep-15 00:28N 26°04' W 080°08'0 0.0
2017-Sep-14 23:49N 26°04' W 080°08'0 0.0
2017-Sep-14 23:19N 26°04' W 080°08'0 0.0
2017-Sep-14 22:49N 26°04' W 080°08'0 0.0
2017-Sep-14 22:19N 26°04' W 080°08'0 0.0
2017-Sep-14 21:46N 26°04' W 080°08'0 0.0
2017-Sep-14 21:22N 26°04' W 080°08'0 0.0
2017-Sep-14 20:52N 26°04' W 080°08'0 0.0
2017-Sep-14 20:22N 26°04' W 080°08'0 0.0
2017-Sep-14 19:52N 26°04' W 080°08'0 0.0
2017-Sep-14 19:25N 26°04' W 080°08'0 0.0
2017-Sep-14 18:55N 26°04' W 080°08'0 0.0
2017-Sep-14 18:25N 26°04' W 080°08'0 0.0
2017-Sep-14 17:55N 26°04' W 080°08'  
Track history (hours):
 
Tides and Currents Weather Stations Pressure Air Temp Water Temp Dewpoint Dewpoint Depression Visibility Wind Speed Wind Dir Waves Ship Positions

Gusto

Last reported at 2017-Sep-20 04:17 UTC. Time now 2017-Sep-22 04:29 UTC.
Position N 27°01' W 079°57'.

Length 26 m.

Type: Pleasure craft. MMSI: 538070983.

Date/timePositionNaut miles runAvg speedWind from/ knotsBaromVisibWave heightAir tempDewpointWater temp
2017-Sep-20 04:17N 27°01' W 079°57'3 9.9
2017-Sep-20 04:00N 26°58' W 079°57'510.0
2017-Sep-20 03:30N 26°53' W 079°57'29 9.1
2017-Sep-20 00:18N 26°24' W 079°58'310.6
2017-Sep-20 00:00N 26°21' W 079°58'510.2
2017-Sep-19 23:30N 26°16' W 080°00'5 9.5
2017-Sep-19 23:00N 26°11' W 080°01'4 8.3
2017-Sep-19 22:30N 26°08' W 080°02'4 7.9
2017-Sep-19 22:00N 26°06' W 080°06'2 4.6
2017-Sep-19 21:30N 26°04' W 080°07'1 1.0
2017-Sep-19 20:54N 26°04' W 080°08'0 0.0
2017-Sep-19 20:21N 26°04' W 080°08'0 0.0
2017-Sep-19 19:54N 26°04' W 080°08'0 0.0
2017-Sep-19 19:27N 26°04' W 080°08'0 0.0
2017-Sep-19 18:57N 26°04' W 080°08'0 0.0
2017-Sep-19 18:27N 26°04' W 080°08'0 0.0
2017-Sep-19 17:57N 26°04' W 080°08'0 0.0
2017-Sep-19 17:27N 26°04' W 080°08'0 0.0
2017-Sep-19 16:54N 26°04' W 080°08'0 0.0
2017-Sep-19 16:30N 26°04' W 080°08'0 0.0
2017-Sep-19 16:00N 26°04' W 080°08'0 0.0
2017-Sep-19 15:30N 26°04' W 080°08'0 0.0
2017-Sep-19 15:00N 26°04' W 080°08'0 0.0
2017-Sep-19 14:27N 26°04' W 080°08'0 0.0
2017-Sep-19 13:57N 26°04' W 080°08'0 0.0
2017-Sep-19 13:30N 26°04' W 080°08'0 0.0
2017-Sep-19 13:00N 26°04' W 080°08'0 0.0
2017-Sep-19 12:30N 26°04' W 080°08'0 0.0
2017-Sep-19 12:00N 26°04' W 080°08'0 0.1
2017-Sep-19 11:30N 26°04' W 080°08'0 0.0
2017-Sep-19 11:00N 26°04' W 080°08'0 0.0
2017-Sep-19 10:17N 26°04' W 080°08'0 0.0
2017-Sep-19 09:59N 26°04' W 080°08'0 0.0
2017-Sep-19 09:29N 26°04' W 080°08'0 0.0
2017-Sep-19 08:59N 26°04' W 080°08'0 0.0
2017-Sep-19 08:14N 26°04' W 080°08'0 0.0
2017-Sep-19 07:59N 26°04' W 080°08'0 0.0
2017-Sep-19 07:20N 26°04' W 080°08'0 0.0
2017-Sep-19 06:59N 26°04' W 080°08'0 0.0
2017-Sep-19 06:20N 26°04' W 080°08'0 0.0
2017-Sep-19 05:53N 26°04' W 080°08'0 0.0
2017-Sep-19 05:23N 26°04' W 080°08'0 0.0
2017-Sep-19 04:50N 26°04' W 080°08'0 0.0
2017-Sep-19 04:20N 26°04' W 080°08'0 0.0
2017-Sep-19 03:53N 26°04' W 080°08'0 0.0
2017-Sep-19 03:23N 26°04' W 080°08'0 0.0
2017-Sep-19 02:56N 26°04' W 080°08'0 0.0
2017-Sep-19 02:26N 26°04' W 080°08'0 0.0
2017-Sep-19 01:56N 26°04' W 080°08'0 0.0
2017-Sep-19 01:26N 26°04' W 080°08'0 0.0
2017-Sep-19 00:59N 26°04' W 080°08'0 0.0
2017-Sep-19 00:11N 26°04' W 080°08'0 0.0
2017-Sep-18 23:59N 26°04' W 080°08'0 0.0
2017-Sep-18 15:20N 26°04' W 080°08'0 0.0
2017-Sep-18 14:50N 26°04' W 080°08'0 0.0
2017-Sep-18 14:02N 26°04' W 080°08'0 0.0
2017-Sep-18 13:53N 26°04' W 080°08'0 0.0
2017-Sep-18 13:23N 26°04' W 080°08'0 0.0
2017-Sep-18 12:53N 26°04' W 080°08'0 0.0
2017-Sep-18 12:26N 26°04' W 080°08'0 0.0
2017-Sep-18 11:26N 26°04' W 080°08'0 0.0
2017-Sep-18 10:56N 26°04' W 080°08'0 0.0
2017-Sep-18 09:53N 26°04' W 080°08'0 0.0
2017-Sep-18 09:26N 26°04' W 080°08'0 0.0
2017-Sep-18 08:59N 26°04' W 080°08'0 0.0
2017-Sep-18 08:11N 26°04' W 080°08'0 0.0
2017-Sep-18 07:59N 26°04' W 080°08'0 0.0
2017-Sep-18 07:29N 26°04' W 080°08'0 0.0
2017-Sep-18 06:59N 26°04' W 080°08'0 0.0
2017-Sep-18 06:29N 26°04' W 080°08'0 0.0
2017-Sep-18 05:59N 26°04' W 080°08'0 0.0
2017-Sep-18 05:28N 26°04' W 080°08'0 0.0
2017-Sep-18 04:59N 26°04' W 080°08'0 0.0
2017-Sep-17 13:10N 26°04' W 080°08'0 0.0
2017-Sep-17 12:59N 26°04' W 080°08'0 0.0
2017-Sep-17 12:29N 26°04' W 080°08'0 0.0
2017-Sep-17 11:59N 26°04' W 080°08'0 0.0
2017-Sep-17 11:28N 26°04' W 080°08'0 0.0
2017-Sep-17 10:58N 26°04' W 080°08'0 0.0
2017-Sep-17 10:28N 26°04' W 080°08'0 0.0
2017-Sep-17 09:58N 26°04' W 080°08'0 0.0
2017-Sep-17 09:29N 26°04' W 080°08'0 0.0
2017-Sep-17 08:58N 26°04' W 080°08'0 0.0
2017-Sep-17 08:29N 26°04' W 080°08'0 0.0
2017-Sep-17 07:58N 26°04' W 080°08'0 0.0
2017-Sep-17 07:28N 26°04' W 080°08'0 0.0
2017-Sep-17 06:58N 26°04' W 080°08'0 0.0
2017-Sep-17 06:28N 26°04' W 080°08'0 0.0
2017-Sep-17 05:58N 26°04' W 080°08'0 0.0
2017-Sep-17 05:28N 26°04' W 080°08'0 0.0
2017-Sep-17 04:58N 26°04' W 080°08'0 0.0
2017-Sep-17 04:28N 26°04' W 080°08'0 0.0
2017-Sep-17 03:59N 26°04' W 080°08'0 0.0
2017-Sep-17 03:28N 26°04' W 080°08'0 0.0
2017-Sep-17 02:59N 26°04' W 080°08'0 0.0
2017-Sep-17 02:28N 26°04' W 080°08'0 0.0
2017-Sep-17 01:58N 26°04' W 080°08'0 0.0
2017-Sep-17 01:28N 26°04' W 080°08'0 0.0
2017-Sep-17 00:58N 26°04' W 080°08'0 0.0
2017-Sep-17 00:28N 26°04' W 080°08'0 0.0
2017-Sep-16 23:59N 26°04' W 080°08'0 0.0
2017-Sep-16 23:28N 26°04' W 080°08'0 0.0
2017-Sep-16 22:58N 26°04' W 080°08'0 0.0
2017-Sep-16 22:28N 26°04' W 080°08'0 0.0
2017-Sep-16 21:58N 26°04' W 080°08'0 0.0
2017-Sep-16 21:28N 26°04' W 080°08'0 0.0
2017-Sep-16 20:58N 26°04' W 080°08'0 0.0
2017-Sep-16 20:28N 26°04' W 080°08'0 0.0
2017-Sep-16 19:58N 26°04' W 080°08'0 0.0
2017-Sep-16 19:28N 26°04' W 080°08'0 0.0
2017-Sep-16 18:59N 26°04' W 080°08'0 0.0
2017-Sep-16 18:28N 26°04' W 080°08'0 0.0
2017-Sep-16 17:58N 26°04' W 080°08'0 0.0
2017-Sep-16 17:28N 26°04' W 080°08'0 0.0
2017-Sep-16 16:58N 26°04' W 080°08'0 0.0
2017-Sep-16 16:28N 26°04' W 080°08'0 0.0
2017-Sep-16 15:58N 26°04' W 080°08'0 0.0
2017-Sep-16 15:28N 26°04' W 080°08'0 0.0
2017-Sep-16 14:58N 26°04' W 080°08'0 0.0
2017-Sep-16 14:28N 26°04' W 080°08'0 0.0
2017-Sep-16 13:58N 26°04' W 080°08'0 0.0
2017-Sep-16 13:28N 26°04' W 080°08'0 0.0
2017-Sep-16 12:58N 26°04' W 080°08'0 0.0
2017-Sep-16 12:28N 26°04' W 080°08'0 0.0
2017-Sep-16 11:58N 26°04' W 080°08'0 0.0
2017-Sep-16 11:28N 26°04' W 080°08'0 0.0
2017-Sep-16 10:58N 26°04' W 080°08'0 0.0
2017-Sep-16 10:28N 26°04' W 080°08'0 0.0
2017-Sep-16 09:58N 26°04' W 080°08'0 0.0
2017-Sep-16 09:28N 26°04' W 080°08'0 0.0
2017-Sep-16 08:58N 26°04' W 080°08'0 0.0
2017-Sep-16 08:28N 26°04' W 080°08'0 0.0
2017-Sep-16 07:58N 26°04' W 080°08'0 0.0
2017-Sep-16 07:28N 26°04' W 080°08'0 0.0
2017-Sep-16 06:58N 26°04' W 080°08'0 0.0
2017-Sep-16 06:28N 26°04' W 080°08'0 0.0
2017-Sep-16 05:58N 26°04' W 080°08'0 0.0
2017-Sep-16 05:28N 26°04' W 080°08'0 0.0
2017-Sep-16 04:58N 26°04' W 080°08'0 0.0
2017-Sep-16 04:28N 26°04' W 080°08'0 0.0
2017-Sep-16 03:52N 26°04' W 080°08'0 0.0
2017-Sep-16 03:28N 26°04' W 080°08'0 0.0
2017-Sep-16 02:58N 26°04' W 080°08'0 0.0
2017-Sep-16 02:28N 26°04' W 080°08'0 0.0
2017-Sep-16 01:58N 26°04' W 080°08'0 0.0
2017-Sep-16 01:28N 26°04' W 080°08'0 0.0
2017-Sep-16 00:58N 26°04' W 080°08'0 0.0
2017-Sep-16 00:28N 26°04' W 080°08'0 0.0
2017-Sep-15 23:58N 26°04' W 080°08'0 0.0
2017-Sep-15 23:28N 26°04' W 080°08'0 0.0
2017-Sep-15 22:58N 26°04' W 080°08'0 0.0
2017-Sep-15 22:28N 26°04' W 080°08'0 0.0
2017-Sep-15 21:58N 26°04' W 080°08'0 0.0
2017-Sep-15 21:28N 26°04' W 080°08'0 0.0
2017-Sep-15 20:58N 26°04' W 080°08'0 0.0
2017-Sep-15 20:28N 26°04' W 080°08'0 0.0
2017-Sep-15 19:58N 26°04' W 080°08'0 0.0
2017-Sep-15 19:28N 26°04' W 080°08'0 0.0
2017-Sep-15 18:58N 26°04' W 080°08'0 0.0
2017-Sep-15 18:28N 26°04' W 080°08'0 0.0
2017-Sep-15 17:58N 26°04' W 080°08'0 0.1
2017-Sep-15 17:28N 26°04' W 080°08'0 0.0
2017-Sep-15 16:58N 26°04' W 080°08'0 0.0
2017-Sep-15 16:28N 26°04' W 080°08'0 0.0
2017-Sep-15 15:58N 26°04' W 080°08'0 0.0
2017-Sep-15 15:28N 26°04' W 080°08'0 0.0
2017-Sep-15 14:58N 26°04' W 080°08'0 0.0
2017-Sep-15 14:19N 26°04' W 080°08'0 0.1
2017-Sep-15 13:52N 26°04' W 080°08'0 0.0
2017-Sep-15 13:19N 26°04' W 080°08'0 0.0
2017-Sep-15 12:46N 26°04' W 080°08'0 0.0
2017-Sep-15 12:22N 26°04' W 080°08'0 0.0
2017-Sep-15 11:52N 26°04' W 080°08'0 0.0
2017-Sep-15 11:22N 26°04' W 080°08'0 0.0
2017-Sep-15 10:55N 26°04' W 080°08'0 0.0
2017-Sep-15 10:22N 26°04' W 080°08'0 0.0
2017-Sep-15 09:55N 26°04' W 080°08'0 0.0
2017-Sep-15 09:25N 26°04' W 080°08'0 0.0
2017-Sep-15 08:55N 26°04' W 080°08'0 0.0
2017-Sep-15 08:25N 26°04' W 080°08'0 0.0
2017-Sep-15 07:55N 26°04' W 080°08'0 0.0
2017-Sep-15 07:25N 26°04' W 080°08'0 0.0
2017-Sep-15 06:58N 26°04' W 080°08'0 0.0
2017-Sep-15 06:28N 26°04' W 080°08'0 0.0
2017-Sep-15 05:58N 26°04' W 080°08'0 0.0
2017-Sep-15 05:28N 26°04' W 080°08'0 0.0
2017-Sep-15 04:58N 26°04' W 080°08'0 0.0
2017-Sep-15 04:28N 26°04' W 080°08'0 0.0
2017-Sep-15 03:58N 26°04' W 080°08'0 0.0
2017-Sep-15 03:28N 26°04' W 080°08'0 0.0
2017-Sep-15 02:58N 26°04' W 080°08'0 0.0
2017-Sep-15 02:28N 26°04' W 080°08'0 0.0
2017-Sep-15 01:58N 26°04' W 080°08'0 0.0
2017-Sep-15 01:28N 26°04' W 080°08'0 0.0
2017-Sep-15 00:58N 26°04' W 080°08'0 0.0
2017-Sep-15 00:28N 26°04' W 080°08'0 0.0
2017-Sep-14 23:49N 26°04' W 080°08'0 0.0
2017-Sep-14 23:19N 26°04' W 080°08'0 0.0
2017-Sep-14 22:49N 26°04' W 080°08'0 0.0
2017-Sep-14 22:19N 26°04' W 080°08'0 0.0
2017-Sep-14 21:46N 26°04' W 080°08'0 0.0
2017-Sep-14 21:22N 26°04' W 080°08'0 0.0
2017-Sep-14 20:52N 26°04' W 080°08'0 0.0
2017-Sep-14 20:22N 26°04' W 080°08'0 0.0
2017-Sep-14 19:52N 26°04' W 080°08'0 0.0
2017-Sep-14 19:25N 26°04' W 080°08'0 0.0
2017-Sep-14 18:55N 26°04' W 080°08'0 0.0
2017-Sep-14 18:25N 26°04' W 080°08'0 0.0
2017-Sep-14 17:55N 26°04' W 080°08'  

Dump ship's entire track history